METAR Formatted Surface Weather Observation
Issued by NWS

Home | Current Version | Previous Version | Text Only | Print | Product List | Glossary On
Versions: 1 2 3 4 5 6 7 8 9 10 11 12 13
532
SAUS41 KGYX 291637
MTRNKT
SPECI KNKT 291631Z 20011G17KT 10SM SCT026 BKN033 29/23 A3021 RMK AO2
T02890228



USA.gov is the U.S. government's official web portal to all federal, state and local government web resources and services.